createdAt,value
2023-05-14T00:01:20.561Z,100.00
2023-05-14T00:03:48.892Z,100.00
2023-05-14T00:06:16.140Z,100.00
2023-05-14T00:08:42.990Z,100.00
2023-05-14T00:11:09.775Z,100.00
2023-05-14T00:13:36.900Z,100.00
2023-05-14T00:16:04.191Z,100.00
2023-05-14T00:18:31.093Z,100.00
2023-05-14T00:20:59.414Z,100.00
2023-05-14T00:23:26.291Z,100.00
2023-05-14T00:25:53.142Z,100.00
2023-05-14T00:28:20.468Z,100.00
2023-05-14T00:30:47.344Z,100.00
2023-05-14T00:33:14.138Z,100.00
2023-05-14T00:35:41.062Z,100.00
2023-05-14T00:38:09.876Z,100.00
2023-05-14T00:40:36.741Z,100.00
2023-05-14T00:43:03.790Z,100.00
2023-05-14T00:45:31.082Z,100.00
2023-05-14T00:47:57.947Z,100.00
2023-05-14T00:50:25.334Z,100.00
2023-05-14T00:52:52.560Z,100.00
2023-05-14T00:55:21.892Z,100.00
2023-05-14T00:57:50.419Z,100.00
2023-05-14T01:00:18.133Z,100.00
2023-05-14T01:02:45.424Z,100.00
2023-05-14T01:05:12.615Z,100.00
2023-05-14T01:07:49.418Z,100.00
2023-05-14T01:10:24.550Z,100.00
2023-05-14T01:13:00.411Z,100.00
2023-05-14T01:15:31.117Z,100.00
2023-05-14T01:18:01.902Z,100.00
2023-05-14T01:20:28.740Z,100.00
2023-05-14T01:22:56.922Z,100.00
2023-05-14T01:25:23.910Z,100.00
2023-05-14T01:27:59.501Z,100.00
2023-05-14T01:30:31.118Z,100.00
2023-05-14T01:33:00.704Z,100.00
2023-05-14T01:35:29.268Z,100.00
2023-05-14T01:38:00.706Z,100.00
2023-05-14T01:40:27.865Z,100.00
2023-05-14T01:42:55.581Z,100.00
2023-05-14T01:45:23.071Z,100.00
2023-05-14T01:47:50.084Z,100.00
2023-05-14T01:50:17.087Z,100.00
2023-05-14T01:52:44.105Z,100.00
2023-05-14T01:55:12.373Z,100.00
2023-05-14T01:57:39.434Z,100.00
2023-05-14T02:00:07.519Z,100.00
2023-05-14T02:02:34.550Z,100.00
2023-05-14T02:05:01.468Z,100.00
2023-05-14T02:07:28.302Z,100.00
2023-05-14T02:09:55.183Z,100.00
2023-05-14T02:12:23.531Z,100.00
2023-05-14T02:14:50.387Z,100.00
2023-05-14T02:17:17.905Z,100.00
2023-05-14T02:19:44.732Z,100.00
2023-05-14T02:22:11.881Z,100.00
2023-05-14T02:24:38.852Z,100.00
2023-05-14T02:27:06.402Z,100.00
2023-05-14T02:29:34.739Z,100.00
2023-05-14T02:32:01.590Z,100.00
2023-05-14T02:34:28.508Z,100.00
2023-05-14T02:36:55.607Z,100.00
2023-05-14T02:39:22.519Z,100.00
2023-05-14T02:41:49.314Z,100.00
2023-05-14T02:44:16.161Z,100.00
2023-05-14T02:46:45.698Z,100.00
2023-05-14T02:49:12.586Z,100.00
2023-05-14T02:51:39.964Z,100.00
2023-05-14T02:54:07.266Z,100.00
2023-05-14T02:56:33.953Z,100.00
2023-05-14T02:59:00.819Z,100.00
2023-05-14T03:01:28.563Z,100.00
2023-05-14T03:03:57.367Z,100.00
2023-05-14T03:06:24.201Z,100.00
2023-05-14T03:08:51.147Z,100.00
2023-05-14T03:11:18.004Z,100.00
2023-05-14T03:13:44.817Z,100.00
2023-05-14T03:16:11.685Z,100.00
2023-05-14T03:18:38.583Z,100.00
2023-05-14T03:21:06.856Z,100.00
2023-05-14T03:23:35.116Z,100.00
2023-05-14T03:26:02.316Z,100.00
2023-05-14T03:28:29.228Z,100.00
2023-05-14T03:30:56.097Z,100.00
2023-05-14T03:33:23.701Z,100.00
2023-05-14T03:35:51.641Z,100.00
2023-05-14T03:38:19.888Z,100.00
2023-05-14T03:40:46.822Z,100.00
2023-05-14T03:43:13.659Z,100.00
2023-05-14T03:45:40.544Z,100.00
2023-05-14T03:48:07.475Z,100.00
2023-05-14T03:50:34.485Z,100.00
2023-05-14T03:53:01.457Z,100.00
2023-05-14T03:55:29.846Z,100.00
2023-05-14T03:57:56.852Z,100.00
2023-05-14T04:00:24.014Z,100.00
2023-05-14T04:02:51.247Z,100.00
2023-05-14T04:05:18.207Z,100.00
2023-05-14T04:07:46.168Z,100.00
2023-05-14T04:10:13.720Z,100.00
2023-05-14T04:12:42.006Z,100.00
2023-05-14T04:15:10.249Z,100.00
2023-05-14T04:17:37.117Z,100.00
2023-05-14T04:20:04.698Z,100.00
2023-05-14T04:22:32.370Z,100.00
2023-05-14T04:24:59.233Z,100.00
2023-05-14T04:27:26.046Z,100.00
2023-05-14T04:29:54.422Z,100.00
2023-05-14T04:32:21.549Z,100.00
2023-05-14T04:34:48.487Z,100.00
2023-05-14T04:37:15.875Z,100.00
2023-05-14T04:39:42.823Z,100.00
2023-05-14T04:42:09.853Z,100.00
2023-05-14T04:44:37.692Z,100.00
2023-05-14T04:47:07.002Z,100.00
2023-05-14T04:49:33.876Z,100.00
2023-05-14T04:52:01.086Z,100.00
2023-05-14T04:54:27.975Z,100.00
2023-05-14T04:56:55.996Z,100.00
2023-05-14T04:59:22.999Z,100.00
2023-05-14T05:01:49.903Z,100.00
2023-05-14T05:04:18.267Z,100.00
2023-05-14T05:06:45.280Z,100.00
2023-05-14T05:09:12.397Z,100.00
2023-05-14T05:11:39.249Z,100.00
2023-05-14T05:14:06.049Z,100.00
2023-05-14T05:16:32.976Z,100.00
2023-05-14T05:18:59.976Z,100.00
2023-05-14T05:21:28.442Z,100.00
2023-05-14T05:23:56.002Z,100.00
2023-05-14T05:26:23.090Z,100.00
2023-05-14T05:28:50.037Z,100.00
2023-05-14T05:31:19.049Z,100.00
2023-05-14T05:33:46.732Z,100.00
2023-05-14T05:36:13.582Z,100.00
2023-05-14T05:38:41.794Z,100.00
2023-05-14T05:41:08.635Z,100.00
2023-05-14T05:43:35.535Z,100.00
2023-05-14T05:46:02.505Z,100.00
2023-05-14T05:48:29.440Z,100.00
2023-05-14T05:50:56.458Z,100.00
2023-05-14T05:53:23.418Z,100.00
2023-05-14T05:55:51.721Z,100.00
2023-05-14T05:58:19.111Z,100.00
2023-05-14T06:00:47.150Z,100.00
2023-05-14T06:03:14.163Z,100.00
2023-05-14T06:05:41.204Z,100.00
2023-05-14T06:08:08.105Z,100.00
2023-05-14T06:10:36.230Z,100.00
2023-05-14T06:13:04.597Z,100.00
2023-05-14T06:15:31.462Z,100.00
2023-05-14T06:17:58.415Z,100.00
2023-05-14T06:20:25.667Z,100.00
2023-05-14T06:22:52.731Z,100.00
2023-05-14T06:25:19.830Z,100.00
2023-05-14T06:27:46.711Z,100.00
2023-05-14T06:30:16.048Z,100.00
2023-05-14T06:32:42.979Z,100.00
2023-05-14T06:35:10.483Z,100.00
2023-05-14T06:37:37.377Z,100.00
2023-05-14T06:40:05.572Z,100.00
2023-05-14T06:42:32.465Z,100.00
2023-05-14T06:44:59.545Z,100.00
2023-05-14T06:47:27.803Z,100.00
2023-05-14T06:49:55.903Z,100.00
2023-05-14T06:52:22.782Z,100.00
2023-05-14T06:54:49.603Z,100.00
2023-05-14T06:57:16.466Z,100.00
2023-05-14T06:59:43.435Z,100.00
2023-05-14T07:02:10.636Z,100.00
2023-05-14T07:04:38.928Z,100.00
2023-05-14T07:07:05.977Z,100.00
2023-05-14T07:09:32.935Z,100.00
2023-05-14T07:11:59.774Z,100.00
2023-05-14T07:14:26.851Z,100.00
2023-05-14T07:16:54.298Z,100.00
2023-05-14T07:19:22.426Z,100.00
2023-05-14T07:21:51.097Z,100.00
2023-05-14T07:24:17.913Z,100.00
2023-05-14T07:26:44.934Z,100.00
2023-05-14T07:29:11.874Z,100.00
2023-05-14T07:31:38.882Z,100.00
2023-05-14T07:34:05.708Z,100.00
2023-05-14T07:36:32.729Z,100.00
2023-05-14T07:39:01.019Z,100.00
2023-05-14T07:41:27.894Z,100.00
2023-05-14T07:43:54.746Z,100.00
2023-05-14T07:46:21.665Z,100.00
2023-05-14T07:48:48.469Z,100.00
2023-05-14T07:51:15.369Z,100.00
2023-05-14T07:53:42.188Z,100.00
2023-05-14T07:56:10.566Z,100.00
2023-05-14T07:58:37.453Z,100.00
2023-05-14T08:01:07.202Z,100.00
2023-05-14T08:03:34.364Z,100.00
2023-05-14T08:06:01.265Z,100.00
2023-05-14T08:08:28.054Z,100.00
2023-05-14T08:10:54.978Z,100.00
2023-05-14T08:13:23.194Z,100.00
2023-05-14T08:15:49.990Z,100.00
2023-05-14T08:18:17.061Z,100.00
2023-05-14T08:20:43.940Z,100.00
2023-05-14T08:23:11.244Z,100.00
2023-05-14T08:25:38.153Z,100.00
2023-05-14T08:28:05.517Z,100.00
2023-05-14T08:30:34.320Z,100.00
2023-05-14T08:33:01.301Z,100.00
2023-05-14T08:35:28.145Z,100.00
2023-05-14T08:37:54.995Z,100.00
2023-05-14T08:40:22.525Z,100.00
2023-05-14T08:42:51.256Z,100.00
2023-05-14T08:45:19.602Z,100.00
2023-05-14T08:47:50.617Z,100.00
2023-05-14T08:50:20.399Z,100.00
2023-05-14T08:52:49.044Z,100.00
2023-05-14T08:55:15.950Z,100.00
2023-05-14T08:57:42.959Z,100.00
2023-05-14T09:00:13.519Z,100.00
2023-05-14T09:02:41.726Z,98.40
2023-05-14T09:05:11.021Z,100.00
2023-05-14T09:07:37.936Z,95.86
2023-05-14T09:10:05.731Z,100.00
2023-05-14T09:12:32.728Z,98.04
2023-05-14T09:14:59.559Z,98.61
2023-05-14T09:17:30.032Z,98.43
2023-05-14T09:19:57.010Z,97.25
2023-05-14T09:22:25.293Z,99.53
2023-05-14T09:25:06.233Z,99.63
2023-05-14T09:27:34.146Z,96.14
2023-05-14T09:30:10.672Z,96.27
2023-05-14T09:32:39.486Z,94.68
2023-05-14T09:35:14.713Z,99.70
2023-05-14T09:37:44.038Z,100.00
2023-05-14T09:40:11.939Z,100.00
2023-05-14T09:42:38.795Z,100.00
2023-05-14T09:45:07.720Z,100.00
2023-05-14T09:47:34.742Z,96.67
2023-05-14T09:50:01.629Z,95.63
2023-05-14T09:52:28.573Z,95.14
2023-05-14T09:54:57.014Z,94.96
2023-05-14T09:57:24.141Z,95.14
2023-05-14T09:59:50.980Z,95.00
2023-05-14T10:02:23.288Z,95.43
2023-05-14T10:04:51.973Z,94.64
2023-05-14T10:07:23.383Z,98.19
2023-05-14T10:09:59.817Z,95.87
2023-05-14T10:12:29.455Z,95.94
2023-05-14T10:14:59.926Z,100.00
2023-05-14T10:17:31.279Z,94.33
2023-05-14T10:20:00.056Z,93.94
2023-05-14T10:22:33.951Z,94.89
2023-05-14T10:25:03.159Z,92.77
2023-05-14T10:27:30.540Z,93.87
2023-05-14T10:29:57.972Z,94.53
2023-05-14T10:32:26.408Z,93.69
2023-05-14T10:34:54.049Z,95.24
2023-05-14T10:37:23.148Z,91.80
2023-05-14T10:39:51.721Z,97.36
2023-05-14T10:42:21.368Z,96.26
2023-05-14T10:44:52.197Z,90.71
2023-05-14T10:47:19.329Z,96.32
2023-05-14T10:49:49.193Z,96.84
2023-05-14T10:52:19.741Z,97.94
2023-05-14T10:54:57.059Z,95.16
2023-05-14T10:57:27.606Z,90.12
2023-05-14T10:59:56.069Z,91.29
2023-05-14T11:02:25.184Z,88.13
2023-05-14T11:04:57.358Z,90.18
2023-05-14T11:07:27.842Z,89.78
2023-05-14T11:10:00.089Z,90.59
2023-05-14T11:12:28.593Z,89.85
2023-05-14T11:14:58.211Z,93.37
2023-05-14T11:17:26.449Z,92.42
2023-05-14T11:19:54.252Z,89.68
2023-05-14T11:22:21.203Z,92.10
2023-05-14T11:24:48.104Z,87.72
2023-05-14T11:27:16.025Z,90.83
2023-05-14T11:29:46.962Z,88.05
2023-05-14T11:32:15.111Z,90.23
2023-05-14T11:34:44.850Z,90.83
2023-05-14T11:37:15.367Z,90.15
2023-05-14T11:39:48.268Z,90.52
2023-05-14T11:42:17.477Z,86.80
2023-05-14T11:44:47.049Z,88.86
2023-05-14T11:47:13.898Z,85.49
2023-05-14T11:49:41.005Z,92.48
2023-05-14T11:52:11.610Z,91.82
2023-05-14T11:54:38.487Z,89.09
2023-05-14T11:57:09.604Z,88.35
2023-05-14T11:59:36.887Z,92.84
2023-05-14T12:02:06.155Z,86.71
2023-05-14T12:04:33.173Z,88.34
2023-05-14T12:07:00.799Z,89.97
2023-05-14T12:09:27.694Z,88.23
2023-05-14T12:11:54.546Z,85.52
2023-05-14T12:14:23.085Z,86.71
2023-05-14T12:16:51.579Z,87.67
2023-05-14T12:19:21.308Z,84.19
2023-05-14T12:21:50.911Z,90.79
2023-05-14T12:24:20.030Z,83.97
2023-05-14T12:26:48.419Z,85.32
2023-05-14T12:29:16.442Z,87.50
2023-05-14T12:31:47.887Z,83.99
2023-05-14T12:34:15.425Z,88.08
2023-05-14T12:36:44.116Z,83.99
2023-05-14T12:39:12.231Z,83.36
2023-05-14T12:41:39.129Z,86.02
2023-05-14T12:44:06.346Z,82.60
2023-05-14T12:46:34.501Z,84.69
2023-05-14T12:49:01.398Z,80.02
2023-05-14T12:51:28.390Z,82.49
2023-05-14T12:53:56.674Z,81.53
2023-05-14T12:56:27.898Z,83.90
2023-05-14T12:58:55.803Z,82.18
2023-05-14T13:01:22.700Z,86.24
2023-05-14T13:03:49.767Z,84.94
2023-05-14T13:06:16.712Z,84.87
2023-05-14T13:08:43.923Z,87.83
2023-05-14T13:11:12.253Z,84.51
2023-05-14T13:13:39.150Z,84.54
2023-05-14T13:16:06.711Z,84.72
2023-05-14T13:18:33.589Z,83.75
2023-05-14T13:21:00.739Z,84.23
2023-05-14T13:23:27.651Z,87.87
2023-05-14T13:25:54.565Z,87.99
2023-05-14T13:28:22.839Z,83.36
2023-05-14T13:31:05.072Z,87.19
2023-05-14T13:33:32.621Z,88.86
2023-05-14T13:35:59.481Z,85.97
2023-05-14T13:38:26.377Z,86.87
2023-05-14T13:40:54.389Z,86.36
2023-05-14T13:43:22.664Z,87.02
2023-05-14T13:45:50.007Z,85.32
2023-05-14T13:48:16.952Z,87.47
2023-05-14T13:50:43.976Z,87.87
2023-05-14T13:53:10.946Z,91.67
2023-05-14T13:55:37.817Z,88.23
2023-05-14T13:58:04.749Z,86.76
2023-05-14T14:00:32.974Z,85.25
2023-05-14T14:02:59.880Z,86.36
2023-05-14T14:05:28.734Z,87.47
2023-05-14T14:08:01.113Z,87.42
2023-05-14T14:10:35.542Z,86.99
2023-05-14T14:13:02.410Z,89.37
2023-05-14T14:15:29.413Z,88.78
2023-05-14T14:17:57.782Z,87.40
2023-05-14T14:20:24.667Z,87.56
2023-05-14T14:22:51.613Z,88.42
2023-05-14T14:25:18.553Z,90.17
2023-05-14T14:27:47.419Z,90.08
2023-05-14T14:30:15.753Z,88.89
2023-05-14T14:32:43.793Z,92.06
2023-05-14T14:35:13.259Z,90.13
2023-05-14T14:37:41.118Z,88.50
2023-05-14T14:40:09.971Z,87.40
2023-05-14T14:42:37.786Z,88.81
2023-05-14T14:45:05.594Z,87.27
2023-05-14T14:47:32.567Z,92.50
2023-05-14T14:49:59.460Z,91.67
2023-05-14T14:52:28.376Z,89.83
2023-05-14T14:54:58.277Z,88.95
2023-05-14T14:57:25.256Z,87.84
2023-05-14T14:59:52.091Z,88.80
2023-05-14T15:02:19.062Z,90.76
2023-05-14T15:04:46.019Z,91.51
2023-05-14T15:07:12.870Z,89.75
2023-05-14T15:09:41.214Z,90.90
2023-05-14T15:12:09.091Z,92.43
2023-05-14T15:14:35.961Z,93.45
2023-05-14T15:17:02.906Z,91.77
2023-05-14T15:19:31.316Z,94.04
2023-05-14T15:21:58.218Z,93.82
2023-05-14T15:24:26.268Z,93.22
2023-05-14T15:26:54.595Z,94.09
2023-05-14T15:29:21.446Z,92.03
2023-05-14T15:31:48.429Z,92.81
2023-05-14T15:34:15.310Z,93.19
2023-05-14T15:36:42.192Z,95.37
2023-05-14T15:39:10.628Z,93.43
2023-05-14T15:41:37.877Z,93.28
2023-05-14T15:44:06.279Z,94.62
2023-05-14T15:46:33.169Z,94.48
2023-05-14T15:49:00.072Z,96.74
2023-05-14T15:51:26.975Z,91.30
2023-05-14T15:53:54.236Z,91.59
2023-05-14T15:56:21.167Z,91.47
2023-05-14T15:58:48.383Z,94.42
2023-05-14T16:01:16.741Z,94.60
2023-05-14T16:03:43.830Z,89.42
2023-05-14T16:06:11.625Z,95.74
2023-05-14T16:08:38.746Z,95.70
2023-05-14T16:11:06.414Z,95.17
2023-05-14T16:13:33.826Z,96.68
2023-05-14T16:16:01.360Z,98.45
2023-05-14T16:18:31.705Z,96.96
2023-05-14T16:20:58.810Z,97.53
2023-05-14T16:23:25.735Z,96.93
2023-05-14T16:25:52.681Z,97.12
2023-05-14T16:28:19.599Z,96.61
2023-05-14T16:30:46.339Z,98.38
2023-05-14T16:33:13.210Z,97.44
2023-05-14T16:35:41.443Z,97.42
2023-05-14T16:38:08.311Z,98.96
2023-05-14T16:40:35.198Z,96.14
2023-05-14T16:43:02.009Z,96.79
2023-05-14T16:45:28.890Z,97.93
2023-05-14T16:47:55.785Z,96.89
2023-05-14T16:50:22.583Z,98.67
2023-05-14T16:52:50.774Z,98.02
2023-05-14T16:55:19.461Z,98.28
2023-05-14T16:57:46.322Z,98.11
2023-05-14T17:00:15.105Z,96.41
2023-05-14T17:02:41.974Z,96.76
2023-05-14T17:05:09.551Z,97.26
2023-05-14T17:07:38.147Z,100.00
2023-05-14T17:10:07.498Z,100.00
2023-05-14T17:12:34.488Z,97.75
2023-05-14T17:15:03.706Z,100.00
2023-05-14T17:17:32.746Z,98.08
2023-05-14T17:19:59.711Z,97.61
2023-05-14T17:22:26.583Z,98.96
2023-05-14T17:24:53.453Z,99.51
2023-05-14T17:27:21.722Z,100.00
2023-05-14T17:29:51.101Z,100.00
2023-05-14T17:32:18.349Z,100.00
2023-05-14T17:34:45.332Z,100.00
2023-05-14T17:37:12.418Z,100.00
2023-05-14T17:39:39.290Z,100.00
2023-05-14T17:42:06.908Z,100.00
2023-05-14T17:44:36.374Z,100.00
2023-05-14T17:47:04.815Z,100.00
2023-05-14T17:49:31.787Z,100.00
2023-05-14T17:51:58.780Z,100.00
2023-05-14T17:54:25.786Z,100.00
2023-05-14T17:56:52.940Z,100.00
2023-05-14T17:59:20.867Z,100.00
2023-05-14T18:01:50.223Z,100.00
2023-05-14T18:04:17.140Z,100.00
2023-05-14T18:06:44.669Z,100.00
2023-05-14T18:09:11.583Z,100.00
2023-05-14T18:11:38.372Z,100.00
2023-05-14T18:14:05.203Z,100.00
2023-05-14T18:16:32.141Z,100.00
2023-05-14T18:19:00.590Z,100.00
2023-05-14T18:21:27.419Z,100.00
2023-05-14T18:23:54.440Z,100.00
2023-05-14T18:26:22.153Z,100.00
2023-05-14T18:28:49.060Z,100.00
2023-05-14T18:31:16.130Z,100.00
2023-05-14T18:33:43.241Z,100.00
2023-05-14T18:36:11.834Z,100.00
2023-05-14T18:38:38.887Z,100.00
2023-05-14T18:41:05.709Z,100.00
2023-05-14T18:43:32.546Z,100.00
2023-05-14T18:45:59.488Z,100.00
2023-05-14T18:48:26.451Z,100.00
2023-05-14T18:50:53.341Z,100.00
2023-05-14T18:53:21.679Z,100.00
2023-05-14T18:55:48.603Z,100.00
2023-05-14T18:58:17.538Z,100.00
2023-05-14T19:00:44.408Z,100.00
2023-05-14T19:03:11.446Z,100.00
2023-05-14T19:05:38.392Z,100.00
2023-05-14T19:08:05.964Z,100.00
2023-05-14T19:10:34.827Z,100.00
2023-05-14T19:13:02.175Z,100.00
2023-05-14T19:15:29.096Z,100.00
2023-05-14T19:17:56.124Z,100.00
2023-05-14T19:20:23.084Z,100.00
2023-05-14T19:22:49.953Z,100.00
2023-05-14T19:25:16.885Z,100.00
2023-05-14T19:27:47.695Z,100.00
2023-05-14T19:30:14.988Z,100.00
2023-05-14T19:32:41.920Z,100.00
2023-05-14T19:35:09.469Z,100.00
2023-05-14T19:37:36.370Z,100.00
2023-05-14T19:40:03.663Z,100.00
2023-05-14T19:42:31.841Z,100.00
2023-05-14T19:45:00.060Z,100.00
2023-05-14T19:47:28.629Z,100.00
2023-05-14T19:49:55.532Z,100.00
2023-05-14T19:52:22.390Z,100.00
2023-05-14T19:54:49.297Z,100.00
2023-05-14T19:57:16.266Z,100.00
2023-05-14T19:59:44.406Z,100.00
2023-05-14T20:02:18.504Z,100.00
2023-05-14T20:04:46.277Z,100.00
2023-05-14T20:07:15.697Z,100.00
2023-05-14T20:09:42.729Z,100.00
2023-05-14T20:12:09.965Z,100.00
2023-05-14T20:14:36.908Z,100.00
2023-05-14T20:17:04.564Z,100.00
2023-05-14T20:19:32.922Z,100.00
2023-05-14T20:21:59.831Z,100.00
2023-05-14T20:24:26.634Z,100.00
2023-05-14T20:26:53.560Z,100.00
2023-05-14T20:29:20.447Z,100.00
2023-05-14T20:31:47.251Z,100.00
2023-05-14T20:34:14.241Z,100.00
2023-05-14T20:36:42.498Z,100.00
2023-05-14T20:39:11.007Z,100.00
2023-05-14T20:41:37.909Z,100.00
2023-05-14T20:44:04.886Z,100.00
2023-05-14T20:46:31.793Z,100.00
2023-05-14T20:49:01.673Z,100.00
2023-05-14T20:51:28.567Z,100.00
2023-05-14T20:53:56.854Z,100.00
2023-05-14T20:56:23.723Z,100.00
2023-05-14T20:58:50.591Z,100.00
2023-05-14T21:01:17.530Z,100.00
2023-05-14T21:03:44.598Z,100.00
2023-05-14T21:06:11.593Z,100.00
2023-05-14T21:08:40.403Z,100.00
2023-05-14T21:11:08.629Z,100.00
2023-05-14T21:13:35.848Z,100.00
2023-05-14T21:16:02.824Z,100.00
2023-05-14T21:18:32.833Z,100.00
2023-05-14T21:20:59.835Z,100.00
2023-05-14T21:23:26.760Z,100.00
2023-05-14T21:25:54.964Z,100.00
2023-05-14T21:28:23.250Z,100.00
2023-05-14T21:30:51.015Z,100.00
2023-05-14T21:33:17.912Z,100.00
2023-05-14T21:35:44.716Z,100.00
2023-05-14T21:38:11.901Z,100.00
2023-05-14T21:40:38.775Z,100.00
2023-05-14T21:43:05.690Z,100.00
2023-05-14T21:45:33.894Z,100.00
2023-05-14T21:48:00.916Z,100.00
2023-05-14T21:50:28.021Z,100.00
2023-05-14T21:52:55.001Z,100.00
2023-05-14T21:55:22.192Z,100.00
2023-05-14T21:57:49.524Z,100.00
2023-05-14T22:00:23.488Z,100.00
2023-05-14T22:02:52.706Z,100.00
2023-05-14T22:05:19.759Z,100.00
2023-05-14T22:07:46.652Z,100.00
2023-05-14T22:10:14.824Z,100.00
2023-05-14T22:12:43.360Z,100.00
2023-05-14T22:15:11.222Z,100.00
2023-05-14T22:17:38.686Z,100.00
2023-05-14T22:20:10.161Z,100.00
2023-05-14T22:22:37.548Z,100.00
2023-05-14T22:25:05.231Z,100.00
2023-05-14T22:27:32.246Z,100.00
2023-05-14T22:29:59.190Z,100.00
2023-05-14T22:32:26.056Z,100.00
2023-05-14T22:34:52.932Z,100.00
2023-05-14T22:37:21.274Z,100.00
2023-05-14T22:39:48.098Z,100.00
2023-05-14T22:42:14.955Z,100.00
2023-05-14T22:44:41.809Z,100.00
2023-05-14T22:47:08.734Z,100.00
2023-05-14T22:49:35.583Z,100.00
2023-05-14T22:52:02.493Z,100.00
2023-05-14T22:54:30.726Z,100.00
2023-05-14T22:56:57.606Z,100.00
2023-05-14T22:59:24.434Z,100.00
2023-05-14T23:01:51.381Z,100.00
2023-05-14T23:04:18.266Z,100.00
2023-05-14T23:06:45.242Z,100.00
2023-05-14T23:09:12.145Z,100.00
2023-05-14T23:11:40.322Z,100.00
2023-05-14T23:14:07.198Z,100.00
2023-05-14T23:16:34.081Z,100.00
2023-05-14T23:19:01.248Z,100.00
2023-05-14T23:21:28.254Z,100.00
2023-05-14T23:23:55.180Z,100.00
2023-05-14T23:26:22.013Z,100.00
2023-05-14T23:28:51.187Z,100.00
2023-05-14T23:31:18.078Z,100.00
2023-05-14T23:33:45.040Z,100.00
2023-05-14T23:36:11.963Z,100.00
2023-05-14T23:38:38.969Z,100.00
2023-05-14T23:41:05.819Z,100.00
2023-05-14T23:43:33.871Z,100.00
2023-05-14T23:46:02.545Z,100.00
2023-05-14T23:48:29.666Z,100.00
2023-05-14T23:50:56.540Z,100.00
2023-05-14T23:53:23.470Z,100.00
2023-05-14T23:55:50.448Z,100.00
2023-05-14T23:58:17.482Z,100.00
